createdAt,value
2018-11-10T00:02:51.082Z,7.70
2018-11-10T00:05:20.892Z,7.70
2018-11-10T00:07:49.918Z,7.90
2018-11-10T01:02:58.813Z,7.40
2018-11-10T01:05:27.846Z,7.50
2018-11-10T01:07:56.878Z,7.60
2018-11-10T02:02:40.537Z,7.20
2018-11-10T02:05:10.049Z,7.20
2018-11-10T02:07:39.054Z,7.40
2018-11-10T03:02:49.793Z,7.20
2018-11-10T03:05:19.822Z,7.20
2018-11-10T03:07:48.840Z,7.30
2018-11-10T04:02:40.962Z,6.90
2018-11-10T04:05:10.669Z,7.00
2018-11-10T04:07:43.258Z,7.10
2018-11-10T05:03:10.536Z,6.90
2018-11-10T05:05:39.566Z,6.90
2018-11-10T05:08:08.928Z,7.00
2018-11-10T05:10:38.425Z,7.20
2018-11-10T06:02:39.034Z,6.80
2018-11-10T06:05:08.040Z,6.90
2018-11-10T06:07:37.021Z,7.00
2018-11-10T07:02:43.347Z,7.30
2018-11-10T07:05:12.736Z,7.30
2018-11-10T07:07:41.867Z,7.50
2018-11-10T07:10:12.581Z,7.70
2018-11-10T08:02:43.697Z,8.00
2018-11-10T08:05:13.309Z,8.00
2018-11-10T08:07:43.837Z,8.20
2018-11-10T09:02:57.201Z,8.80
2018-11-10T09:05:26.436Z,9.00
2018-11-10T09:07:55.499Z,9.10
2018-11-10T10:02:38.885Z,8.80
2018-11-10T10:05:08.520Z,9.00
2018-11-10T10:07:38.923Z,9.20
2018-11-10T11:02:43.066Z,9.50
2018-11-10T11:05:15.184Z,9.50
2018-11-10T11:07:44.530Z,9.80
2018-11-10T12:02:44.334Z,9.60
2018-11-10T12:05:15.262Z,9.60
2018-11-10T12:07:45.084Z,9.70
2018-11-10T13:02:41.809Z,9.80
2018-11-10T13:05:11.488Z,9.70
2018-11-10T13:07:44.163Z,9.90
2018-11-10T13:10:13.277Z,10.00
2018-11-10T14:02:48.093Z,7.00
2018-11-10T14:05:17.218Z,6.90
2018-11-10T14:07:49.786Z,6.90
2018-11-10T14:10:19.834Z,6.80
2018-11-10T15:02:47.018Z,4.50
2018-11-10T15:05:17.114Z,4.60
2018-11-10T15:07:46.269Z,4.60
2018-11-10T16:03:05.996Z,3.90
2018-11-10T16:05:35.066Z,4.00
2018-11-10T16:08:04.093Z,4.00
2018-11-10T20:05:32.487Z,3.70
2018-11-10T20:08:01.676Z,3.80
2018-11-10T20:10:31.958Z,4.10
2018-11-10T21:02:56.459Z,4.40
2018-11-10T21:05:25.637Z,4.50
2018-11-10T21:07:54.933Z,4.70
2018-11-10T22:02:55.844Z,4.50
2018-11-10T22:05:28.111Z,4.60
2018-11-10T22:08:00.768Z,4.60
